Time;durP1;ratioP1;P1;durP2;ratioP2;P2;SDS_P1;SDS_P2;PMS_P1;PMS_P2;Temp;Humidity;BMP_temperature;BMP_pressure;BME280_temperature;BME280_humidity;BME280_pressure;Samples;Min_cycle;Max_cycle;Signal;HPM_P1;HPM_P2
2023/06/07 00:02:30;;;;;;;6.05;1.70;;;30.20;82.40;;;;;;5018957;28;20221;-91
2023/06/07 00:05:13;;;;;;;6.43;1.83;;;30.00;82.50;;;;;;5026340;28;20233;-92
2023/06/07 00:07:46;;;;;;;3.92;1.65;;;30.00;83.60;;;;;;5011838;28;20309;-93
2023/06/07 00:10:18;;;;;;;2.80;1.50;;;29.80;81.60;;;;;;5015359;28;20198;-92
2023/06/07 00:12:49;;;;;;;3.78;1.70;;;29.70;82.10;;;;;;5008580;28;20241;-94
2023/06/07 00:15:23;;;;;;;4.13;1.38;;;29.70;82.70;;;;;;5013337;28;20255;-94
2023/06/07 00:17:59;;;;;;;7.25;1.75;;;29.60;81.10;;;;;;5010322;28;20279;-90
2023/06/07 00:20:31;;;;;;;6.68;1.80;;;29.40;82.90;;;;;;5015586;28;20217;-90
2023/06/07 00:23:04;;;;;;;5.97;1.75;;;29.30;83.50;;;;;;5021381;28;20328;-91
2023/06/07 00:25:36;;;;;;;6.10;1.92;;;29.30;83.60;;;;;;5023790;28;20297;-90
2023/06/07 00:28:08;;;;;;;5.18;1.88;;;29.40;85.10;;;;;;5016083;28;20210;-91
2023/06/07 00:30:41;;;;;;;4.93;1.80;;;29.40;84.20;;;;;;4999447;28;20753;-90
2023/06/07 00:33:15;;;;;;;3.83;1.70;;;29.30;84.20;;;;;;5001189;28;20655;-91
2023/06/07 00:35:47;;;;;;;4.13;2.00;;;29.10;83.40;;;;;;5003097;28;20269;-91
2023/06/07 00:38:19;;;;;;;5.15;1.95;;;29.10;84.20;;;;;;5003920;28;20214;-92
2023/06/07 00:40:52;;;;;;;9.02;3.60;;;28.90;85.20;;;;;;5018292;28;20266;-91
2023/06/07 00:43:24;;;;;;;16.40;7.68;;;28.80;90.00;;;;;;5041475;28;20677;-91
2023/06/07 00:45:59;;;;;;;11.55;5.28;;;28.70;92.70;;;;;;5013946;28;20559;-91
2023/06/07 00:48:32;;;;;;;5.65;2.10;;;28.90;90.50;;;;;;5019261;28;20215;-90
2023/06/07 00:51:04;;;;;;;9.77;2.80;;;29.10;90.60;;;;;;5019561;28;20214;-91
2023/06/07 00:53:36;;;;;;;8.13;2.47;;;29.40;90.10;;;;;;5019727;28;20212;-89
2023/06/07 00:56:09;;;;;;;6.57;1.73;;;29.70;84.50;;;;;;5021089;28;20635;-90
2023/06/07 00:58:41;;;;;;;6.93;2.07;;;30.20;82.30;;;;;;5023610;28;20269;-91
2023/06/07 01:01:17;;;;;;;7.05;1.67;;;30.60;83.00;;;;;;5034612;28;20292;-91
2023/06/07 01:03:49;;;;;;;4.90;1.77;;;30.90;82.10;;;;;;5021522;28;20209;-91
2023/06/07 01:06:22;;;;;;;5.60;1.83;;;31.10;85.70;;;;;;5016132;28;20244;-92
2023/06/07 01:08:53;;;;;;;5.57;1.75;;;31.10;85.90;;;;;;5003706;28;20293;-93
2023/06/07 01:11:27;;;;;;;2.83;1.48;;;31.50;84.40;;;;;;5004463;28;20216;-92
2023/06/07 01:14:00;;;;;;;5.13;1.70;;;31.70;85.00;;;;;;5018251;28;20284;-91
2023/06/07 01:16:35;;;;;;;4.22;1.75;;;31.50;82.30;;;;;;5015914;28;20205;-91
2023/06/07 01:19:07;;;;;;;4.70;1.50;;;31.70;80.30;;;;;;5013954;28;20551;-90
2023/06/07 01:21:41;;;;;;;3.05;1.52;;;31.80;82.70;;;;;;5020418;28;20601;-92
2023/06/07 01:24:18;;;;;;;6.25;1.63;;;31.80;79.40;;;;;;5018310;28;20300;-92
2023/06/07 01:26:52;;;;;;;8.48;1.83;;;32.00;78.40;;;;;;5013910;28;20216;-92
2023/06/07 01:29:24;;;;;;;3.75;1.88;;;31.90;79.70;;;;;;5023953;28;20213;-92
2023/06/07 01:32:00;;;;;;;3.35;1.85;;;31.80;78.80;;;;;;5002675;28;20209;-92
2023/06/07 01:34:33;;;;;;;4.95;1.90;;;32.10;77.80;;;;;;5017561;28;20205;-91
2023/06/07 01:37:05;;;;;;;2.63;1.55;;;32.20;78.10;;;;;;5017691;28;20225;-91
2023/06/07 01:39:42;;;;;;;4.15;1.70;;;32.30;77.20;;;;;;5015946;28;20209;-92
2023/06/07 01:42:13;;;;;;;5.70;2.00;;;32.10;80.10;;;;;;5017788;28;20587;-91
2023/06/07 01:44:46;;;;;;;2.53;1.58;;;32.20;78.20;;;;;;5001667;28;20221;-92
2023/06/07 01:47:18;;;;;;;3.50;1.90;;;31.90;77.40;;;;;;5017632;28;20551;-91
2023/06/07 01:49:54;;;;;;;3.42;1.83;;;31.60;77.00;;;;;;5022045;28;20196;-92
2023/06/07 01:52:25;;;;;;;4.53;1.75;;;31.30;78.70;;;;;;5017537;28;20288;-91
2023/06/07 01:54:59;;;;;;;3.45;1.35;;;31.20;78.10;;;;;;5017718;28;20213;-91
2023/06/07 01:57:50;;;;;;;2.92;1.50;;;31.00;77.30;;;;;;5018621;28;20223;-90
2023/06/07 02:03:20;;;;;;;5.65;1.63;;;30.50;78.80;;;;;;5011477;28;20731;-93
2023/06/07 02:05:56;;;;;;;5.80;1.90;;;29.60;79.40;;;;;;5016362;28;20213;-91
2023/06/07 02:08:31;;;;;;;4.78;1.42;;;28.80;80.80;;;;;;5016066;28;20335;-91
2023/06/07 02:11:05;;;;;;;2.80;1.67;;;28.30;80.90;;;;;;5015792;28;20201;-91
2023/06/07 02:13:39;;;;;;;3.00;1.60;;;27.90;81.70;;;;;;5017799;28;20260;-91
2023/06/07 02:16:11;;;;;;;4.97;1.77;;;27.80;83.10;;;;;;5018287;28;20272;-92
2023/06/07 02:18:42;;;;;;;6.95;1.83;;;27.80;80.00;;;;;;5011933;28;20311;-91
2023/06/07 02:21:13;;;;;;;5.88;1.95;;;27.70;79.40;;;;;;5012902;28;20569;-90
2023/06/07 02:23:44;;;;;;;8.43;1.70;;;27.60;80.00;;;;;;5002860;28;20321;-91
2023/06/07 02:26:20;;;;;;;2.80;1.70;;;27.50;81.10;;;;;;5000757;28;20261;-91
2023/06/07 02:28:52;;;;;;;4.40;1.93;;;27.20;79.90;;;;;;5000551;28;20549;-90
2023/06/07 02:31:23;;;;;;;4.60;1.40;;;27.10;80.80;;;;;;5016227;28;20205;-90
2023/06/07 02:33:54;;;;;;;9.60;1.53;;;26.90;81.20;;;;;;5012650;28;20205;-91
2023/06/07 02:36:28;;;;;;;5.33;2.07;;;26.50;80.70;;;;;;5007157;28;20293;-91
2023/06/07 02:38:59;;;;;;;5.10;1.70;;;26.20;81.40;;;;;;5015584;28;20308;-91
2023/06/07 02:41:33;;;;;;;4.10;1.90;;;26.00;80.70;;;;;;5016291;28;20279;-90
2023/06/07 02:44:05;;;;;;;2.17;1.50;;;25.90;83.30;;;;;;5015466;28;20233;-92
2023/06/07 02:46:36;;;;;;;2.40;1.50;;;25.60;81.60;;;;;;5011837;28;20316;-91
2023/06/07 02:49:08;;;;;;;4.23;1.80;;;25.50;80.10;;;;;;5013707;28;20547;-90
2023/06/07 02:51:40;;;;;;;3.50;1.60;;;25.40;80.60;;;;;;5016194;28;20213;-90
2023/06/07 02:54:11;;;;;;;3.77;1.67;;;25.30;81.80;;;;;;5016116;28;20277;-90
2023/06/07 02:56:45;;;;;;;5.00;1.70;;;25.10;82.00;;;;;;5011742;28;20222;-90
2023/06/07 02:59:16;;;;;;;5.30;1.97;;;24.90;84.10;;;;;;5012311;28;20206;-91
2023/06/07 03:01:48;;;;;;;3.37;1.87;;;24.80;81.30;;;;;;5015403;28;20233;-90
2023/06/07 03:04:19;;;;;;;6.23;1.60;;;24.70;82.70;;;;;;5017847;28;20273;-90
2023/06/07 03:06:52;;;;;;;10.00;1.80;;;24.60;81.20;;;;;;5001826;28;20278;-90
2023/06/07 03:09:24;;;;;;;5.60;1.87;;;24.50;84.00;;;;;;5015435;28;20205;-94
2023/06/07 03:11:59;;;;;;;4.50;1.77;;;24.40;84.10;;;;;;5029833;28;20205;-95
2023/06/07 03:14:30;;;;;;;3.27;1.57;;;24.30;83.50;;;;;;5030803;28;20226;-93
2023/06/07 03:17:04;;;;;;;4.27;2.00;;;24.10;84.10;;;;;;5021899;28;20205;-95
2023/06/07 03:19:37;;;;;;;4.70;2.00;;;24.00;83.70;;;;;;5011050;28;20225;-93
2023/06/07 03:22:08;;;;;;;2.50;1.97;;;23.90;85.90;;;;;;5028239;28;20226;-93
2023/06/07 03:24:41;;;;;;;7.10;3.10;;;23.80;84.70;;;;;;5016100;28;20233;-93
2023/06/07 03:27:15;;;;;;;3.90;2.20;;;23.60;89.80;;;;;;5027147;28;20217;-93
2023/06/07 03:29:46;;;;;;;9.47;2.67;;;23.50;86.20;;;;;;5029398;28;20224;-94
2023/06/07 03:32:18;;;;;;;9.33;4.43;;;23.20;94.00;;;;;;5014346;28;20218;-93
2023/06/07 03:34:50;;;;;;;4.83;2.10;;;22.90;97.10;;;;;;5008875;28;20206;-93
2023/06/07 03:37:21;;;;;;;2.50;1.67;;;22.70;96.50;;;;;;5012529;28;20213;-92
2023/06/07 03:39:53;;;;;;;4.50;1.80;;;22.50;90.20;;;;;;5001331;28;20206;-93
2023/06/07 03:42:27;;;;;;;2.70;1.50;;;22.40;92.70;;;;;;5016780;28;20236;-92
2023/06/07 03:44:58;;;;;;;5.07;1.80;;;22.30;91.70;;;;;;5011521;28;20324;-93
2023/06/07 03:47:30;;;;;;;4.50;1.40;;;22.30;90.50;;;;;;5016609;28;20240;-94
2023/06/07 03:50:01;;;;;;;3.87;1.40;;;22.20;90.90;;;;;;5015632;28;20210;-93
2023/06/07 03:52:33;;;;;;;2.80;1.80;;;22.20;91.60;;;;;;5016380;28;20584;-92
2023/06/07 03:55:05;;;;;;;3.10;1.70;;;22.00;92.80;;;;;;5010061;28;20200;-93
2023/06/07 03:57:39;;;;;;;3.90;1.60;;;21.90;90.40;;;;;;5016375;28;20213;-92
2023/06/07 04:00:14;;;;;;;3.30;1.77;;;21.90;91.00;;;;;;5014942;28;20209;-93
2023/06/07 04:02:47;;;;;;;2.00;1.70;;;21.80;90.70;;;;;;5016141;28;20209;-93
2023/06/07 04:05:20;;;;;;;3.03;2.00;;;21.70;90.70;;;;;;5015313;28;20219;-93
2023/06/07 04:07:53;;;;;;;5.53;1.80;;;21.60;91.30;;;;;;5017564;28;20663;-93
2023/06/07 04:10:24;;;;;;;3.90;2.00;;;21.50;91.40;;;;;;5017120;28;20214;-92
2023/06/07 04:12:58;;;;;;;6.67;2.13;;;21.40;90.90;;;;;;5018973;28;20214;-93
2023/06/07 04:15:29;;;;;;;4.33;2.10;;;21.30;91.50;;;;;;5009416;28;20228;-93
2023/06/07 04:18:01;;;;;;;2.77;1.63;;;21.20;92.20;;;;;;5016780;28;20254;-92
2023/06/07 04:20:32;;;;;;;5.03;1.87;;;21.10;92.10;;;;;;5029155;28;20205;-92
2023/06/07 04:23:03;;;;;;;5.20;1.90;;;21.00;92.60;;;;;;5026316;28;20210;-93
2023/06/07 04:25:35;;;;;;;6.27;2.07;;;20.90;93.10;;;;;;5036032;28;20209;-93
2023/06/07 04:28:10;;;;;;;4.13;1.70;;;20.80;93.80;;;;;;5038161;28;20217;-92
2023/06/07 04:30:42;;;;;;;3.33;1.53;;;20.70;93.00;;;;;;5036578;28;20207;-93
2023/06/07 04:33:17;;;;;;;3.70;1.80;;;20.60;92.80;;;;;;5010501;28;20655;-92
2023/06/07 04:35:49;;;;;;;2.07;1.60;;;20.50;92.60;;;;;;5012459;28;20216;-91
2023/06/07 04:38:23;;;;;;;4.13;1.60;;;20.40;92.30;;;;;;5009587;28;20592;-92
2023/06/07 04:40:55;;;;;;;4.93;1.50;;;20.30;92.50;;;;;;5013883;28;20296;-92
2023/06/07 04:43:30;;;;;;;3.70;1.70;;;20.30;92.80;;;;;;5022057;28;20269;-94
2023/06/07 04:46:01;;;;;;;5.13;1.60;;;20.20;92.30;;;;;;5003691;28;20236;-92
2023/06/07 04:48:40;;;;;;;4.53;1.87;;;20.10;92.20;;;;;;5014863;28;20214;-93
2023/06/07 04:51:13;;;;;;;2.90;1.70;;;20.00;92.40;;;;;;4998322;28;20201;-93
2023/06/07 04:53:44;;;;;;;3.60;1.60;;;20.00;92.60;;;;;;4995245;28;20211;-93
2023/06/07 04:56:16;;;;;;;5.80;1.63;;;19.90;92.40;;;;;;4995643;28;20286;-92
2023/06/07 04:58:52;;;;;;;2.67;1.50;;;19.80;92.40;;;;;;5001351;28;20240;-93
2023/06/07 05:01:24;;;;;;;3.10;1.50;;;19.70;92.90;;;;;;5013945;28;20289;-91
2023/06/07 05:04:01;;;;;;;3.27;1.63;;;19.70;93.20;;;;;;5012283;28;20237;-90
2023/06/07 05:06:36;;;;;;;5.40;1.77;;;19.60;93.10;;;;;;5013536;28;20213;-90
2023/06/07 10:25:20;;;;;;;3.60;1.83;;;14.80;99.90;;;;;;5283070;23;20266;-97
2023/06/07 10:28:28;;;;;;;3.13;1.70;;;14.80;99.90;;;;;;4981689;28;20207;-96
2023/06/07 16:35:40;;;;;;;5.10;2.00;;;20.90;99.90;;;;;;4934403;29;20275;-92
2023/06/07 16:38:12;;;;;;;4.73;2.50;;;21.00;99.90;;;;;;4925902;29;20217;-91
2023/06/07 16:40:43;;;;;;;5.30;2.10;;;21.10;99.90;;;;;;4926624;29;20213;-93
2023/06/07 16:43:15;;;;;;;3.83;2.33;;;21.10;99.90;;;;;;4937631;29;20251;-96
2023/06/07 16:45:50;;;;;;;3.87;1.97;;;21.00;99.90;;;;;;4943853;29;20286;-92
2023/06/07 16:48:21;;;;;;;5.13;2.00;;;21.00;99.90;;;;;;4933551;29;20208;-93
2023/06/07 16:50:55;;;;;;;4.73;2.47;;;21.20;99.90;;;;;;4921883;29;20214;-93
2023/06/07 16:53:27;;;;;;;4.53;2.40;;;21.10;99.90;;;;;;4939888;29;20216;-92
2023/06/07 16:55:58;;;;;;;2.73;2.00;;;21.20;99.90;;;;;;4937114;29;20211;-90
2023/06/07 16:58:29;;;;;;;4.00;2.07;;;21.30;99.90;;;;;;4939739;29;20220;-90
2023/06/07 17:01:00;;;;;;;6.50;2.27;;;21.30;99.90;;;;;;4936843;29;20219;-91
2023/06/07 17:03:32;;;;;;;3.50;1.97;;;21.30;99.90;;;;;;4934698;29;20682;-89
2023/06/07 17:06:05;;;;;;;5.07;2.20;;;21.40;99.90;;;;;;4935261;29;20246;-90
2023/06/07 17:08:36;;;;;;;2.73;2.10;;;21.50;99.90;;;;;;4937401;29;20303;-91
2023/06/07 17:11:08;;;;;;;8.57;2.23;;;21.50;99.90;;;;;;4936608;29;20208;-90
2023/06/07 17:13:43;;;;;;;4.60;1.90;;;21.60;99.90;;;;;;4938658;29;20208;-90
2023/06/07 17:16:15;;;;;;;5.10;1.90;;;21.80;99.90;;;;;;4921466;29;20242;-89
2023/06/07 17:18:46;;;;;;;3.60;1.90;;;21.80;99.90;;;;;;4941224;29;20215;-90
2023/06/07 17:21:19;;;;;;;3.57;1.90;;;21.80;99.90;;;;;;4911621;29;20261;-89
2023/06/07 17:23:51;;;;;;;5.77;2.10;;;21.90;99.90;;;;;;4930437;29;20581;-90
2023/06/07 17:26:23;;;;;;;2.77;1.80;;;22.10;99.90;;;;;;4940459;29;20239;-90
2023/06/07 17:28:54;;;;;;;3.57;2.33;;;22.20;99.90;;;;;;4927566;29;20215;-91
2023/06/07 17:31:26;;;;;;;5.60;2.40;;;22.50;99.90;;;;;;4939359;29;20633;-89
2023/06/07 17:33:59;;;;;;;5.60;2.43;;;22.60;99.90;;;;;;4938332;29;20223;-90
2023/06/07 17:36:37;;;;;;;3.40;1.90;;;22.60;99.90;;;;;;4939311;29;20292;-90
2023/06/07 17:39:08;;;;;;;4.50;1.90;;;22.70;99.90;;;;;;4936959;29;20238;-90
2023/06/07 17:41:40;;;;;;;5.93;2.00;;;22.90;99.90;;;;;;4924182;29;20213;-90
2023/06/07 17:44:12;;;;;;;5.87;2.20;;;22.90;99.90;;;;;;4918020;29;20417;-89
2023/06/07 17:46:43;;;;;;;4.53;2.13;;;23.10;99.90;;;;;;4930082;29;20228;-91
2023/06/07 17:49:15;;;;;;;5.00;2.50;;;23.20;99.90;;;;;;4940644;29;20280;-91
2023/06/07 17:51:52;;;;;;;2.80;2.20;;;23.10;99.90;;;;;;4939368;29;20239;-92
2023/06/07 17:54:27;;;;;;;5.53;2.40;;;22.90;99.90;;;;;;4930432;29;20237;-92
2023/06/07 17:56:59;;;;;;;4.83;2.20;;;23.00;99.90;;;;;;4939373;29;20244;-91
2023/06/07 17:59:30;;;;;;;8.97;2.33;;;23.20;99.90;;;;;;4947136;29;20578;-92
2023/06/07 18:04:59;;;;;;;2.37;1.80;;;23.20;99.90;;;;;;4941375;29;20235;-92
2023/06/07 18:07:33;;;;;;;9.23;2.53;;;23.30;99.90;;;;;;4945382;29;20317;-91
2023/06/07 18:10:05;;;;;;;3.43;2.10;;;23.50;99.90;;;;;;4931131;29;20212;-93
2023/06/07 18:12:38;;;;;;;5.00;2.00;;;23.50;99.90;;;;;;4939290;29;20648;-92
2023/06/07 18:15:13;;;;;;;4.50;2.37;;;23.60;99.90;;;;;;4939170;29;20216;-93
2023/06/07 18:17:44;;;;;;;5.60;2.60;;;23.80;99.90;;;;;;4930331;29;20224;-93
2023/06/07 18:20:16;;;;;;;3.43;2.10;;;24.00;99.90;;;;;;4936718;29;20208;-93
2023/06/07 18:22:51;;;;;;;4.23;2.50;;;24.10;99.90;;;;;;4945280;29;20220;-92
2023/06/07 18:25:24;;;;;;;3.80;2.10;;;24.20;99.90;;;;;;4949755;29;20287;-92
2023/06/07 18:27:55;;;;;;;4.23;2.30;;;24.10;99.90;;;;;;4935509;29;20272;-92
2023/06/07 18:30:28;;;;;;;4.67;2.00;;;24.00;99.90;;;;;;4938455;29;20217;-92
2023/06/07 18:32:59;;;;;;;4.10;2.27;;;24.10;99.90;;;;;;4937253;29;20698;-91
2023/06/07 18:35:32;;;;;;;7.47;2.40;;;24.20;99.90;;;;;;4938386;29;20220;-91
2023/06/07 18:38:06;;;;;;;7.40;2.17;;;24.30;99.90;;;;;;4941879;28;20193;-92
2023/06/07 18:40:38;;;;;;;3.50;1.90;;;24.20;99.90;;;;;;4941823;28;20203;-92
2023/06/07 18:43:10;;;;;;;5.17;2.27;;;24.10;99.90;;;;;;4947094;28;20211;-92
2023/06/07 18:45:42;;;;;;;3.00;1.83;;;24.30;99.90;;;;;;4944400;28;20224;-92
2023/06/07 18:48:14;;;;;;;4.00;2.13;;;24.70;99.90;;;;;;4940187;29;20209;-92
2023/06/07 18:50:45;;;;;;;4.50;2.40;;;24.50;99.90;;;;;;4937298;29;20216;-92
2023/06/07 18:53:19;;;;;;;3.83;1.97;;;24.50;99.60;;;;;;4942030;29;20257;-92
2023/06/07 18:55:51;;;;;;;3.27;2.20;;;24.60;99.90;;;;;;4941751;29;20226;-91
2023/06/07 18:58:22;;;;;;;4.60;2.50;;;24.50;99.30;;;;;;4955406;29;20219;-93
2023/06/07 19:00:55;;;;;;;3.67;2.00;;;24.50;99.90;;;;;;4940146;29;20216;-94
2023/06/07 19:03:26;;;;;;;4.07;2.27;;;24.70;99.30;;;;;;4936730;29;20243;-92
2023/06/07 19:05:58;;;;;;;2.83;2.17;;;24.80;96.80;;;;;;4928621;29;20240;-92
2023/06/07 19:08:32;;;;;;;4.00;2.00;;;25.00;98.00;;;;;;4938497;29;20220;-93
2023/06/07 19:11:04;;;;;;;4.67;2.43;;;25.20;97.20;;;;;;4922397;29;20220;-92
2023/06/07 19:13:36;;;;;;;9.13;2.40;;;25.50;98.10;;;;;;4936023;29;20212;-92
2023/06/07 19:16:08;;;;;;;6.83;2.07;;;25.40;96.90;;;;;;4941219;29;20231;-94
2023/06/07 19:18:39;;;;;;;7.33;2.30;;;25.20;97.80;;;;;;4938945;29;20235;-92
2023/06/07 19:21:11;;;;;;;4.27;2.13;;;25.20;97.00;;;;;;4934569;29;20214;-93
2023/06/07 19:23:58;;;;;;;5.13;2.30;;;25.20;98.30;;;;;;4930567;29;20215;-92
2023/06/07 19:26:34;;;;;;;3.50;2.50;;;25.20;97.30;;;;;;4939229;29;20291;-93
2023/06/07 19:29:05;;;;;;;5.80;2.20;;;25.10;96.70;;;;;;4955740;29;20207;-93
2023/06/07 19:31:36;;;;;;;2.70;2.10;;;25.10;96.60;;;;;;4958544;29;20258;-93
2023/06/07 19:34:08;;;;;;;5.87;2.27;;;25.00;96.70;;;;;;4935714;29;20577;-91
2023/06/07 19:36:40;;;;;;;2.90;1.77;;;24.80;96.90;;;;;;4930164;29;20220;-92
2023/06/07 19:39:15;;;;;;;4.47;2.23;;;24.90;97.50;;;;;;4935462;29;20230;-92
2023/06/07 19:41:48;;;;;;;4.07;2.00;;;24.90;98.30;;;;;;4938311;29;20211;-92
2023/06/07 19:44:19;;;;;;;2.03;1.80;;;25.00;97.70;;;;;;4938907;29;20227;-93
2023/06/07 19:46:51;;;;;;;4.20;2.20;;;25.00;98.00;;;;;;4921379;29;20600;-93
2023/06/07 19:49:22;;;;;;;3.07;2.17;;;25.30;97.30;;;;;;4938165;29;20221;-92
2023/06/07 19:51:54;;;;;;;2.63;1.80;;;25.60;97.00;;;;;;4936415;29;20241;-92
2023/06/07 19:54:28;;;;;;;4.87;2.03;;;25.60;96.50;;;;;;4917364;29;20209;-92
2023/06/07 19:57:00;;;;;;;5.83;2.63;;;25.70;96.60;;;;;;4918809;29;20216;-92
2023/06/07 19:59:31;;;;;;;4.17;1.97;;;25.60;95.60;;;;;;4927950;29;20251;-91
2023/06/07 20:02:04;;;;;;;3.40;1.97;;;25.80;96.00;;;;;;4923466;29;20302;-93
2023/06/07 20:04:36;;;;;;;6.03;2.10;;;25.80;95.70;;;;;;4943981;29;20235;-92
2023/06/07 20:07:08;;;;;;;3.80;1.93;;;26.00;96.00;;;;;;4937105;29;20595;-93
2023/06/07 20:09:42;;;;;;;3.73;2.13;;;26.30;95.40;;;;;;4901968;29;20235;-92
2023/06/07 20:12:14;;;;;;;4.33;1.87;;;26.50;94.60;;;;;;4947434;29;20213;-92
2023/06/07 20:14:45;;;;;;;4.10;2.10;;;26.70;94.20;;;;;;4946397;29;20204;-92
2023/06/07 20:17:19;;;;;;;4.43;2.13;;;26.70;93.70;;;;;;4940353;29;20752;-93
2023/06/07 20:19:50;;;;;;;2.87;1.90;;;26.90;95.80;;;;;;4939884;29;20204;-94
2023/06/07 20:22:23;;;;;;;2.60;2.10;;;27.10;95.80;;;;;;4939129;29;20772;-93
2023/06/07 20:24:57;;;;;;;3.40;2.13;;;27.00;93.60;;;;;;4939196;29;20208;-93
2023/06/07 20:27:28;;;;;;;4.57;2.03;;;27.20;94.30;;;;;;4939049;29;20243;-93
2023/06/07 20:30:00;;;;;;;2.13;1.90;;;27.40;92.60;;;;;;4946884;29;20204;-92
2023/06/07 20:32:32;;;;;;;2.17;1.80;;;27.50;92.60;;;;;;4941733;29;20228;-92
2023/06/07 20:35:03;;;;;;;4.23;2.50;;;27.70;90.30;;;;;;4940833;29;20222;-92
2023/06/07 20:37:35;;;;;;;2.77;2.30;;;27.80;91.00;;;;;;4938789;29;20226;-92
2023/06/07 20:40:10;;;;;;;7.63;2.40;;;27.80;92.10;;;;;;4960150;28;20272;-92
2023/06/07 20:42:41;;;;;;;3.43;2.13;;;27.90;91.40;;;;;;4961320;28;20220;-92
2023/06/07 20:45:14;;;;;;;4.87;2.30;;;27.50;89.00;;;;;;4958745;28;20214;-92
2023/06/07 20:47:45;;;;;;;2.30;2.10;;;27.50;89.30;;;;;;4944844;29;20236;-92
2023/06/07 20:50:16;;;;;;;5.30;2.37;;;27.40;87.80;;;;;;4946133;29;20200;-92
2023/06/07 20:52:47;;;;;;;5.90;2.20;;;27.30;90.30;;;;;;4947234;29;20231;-93
2023/06/07 20:55:25;;;;;;;4.10;2.57;;;27.60;91.10;;;;;;4960351;28;20200;-95
2023/06/07 21:00:42;;;;;;;5.93;2.33;;;27.40;89.20;;;;;;4960209;28;20200;-93
2023/06/07 21:03:18;;;;;;;3.50;2.13;;;27.50;90.50;;;;;;4949594;29;20208;-94
2023/06/07 21:05:50;;;;;;;3.83;2.53;;;28.00;90.30;;;;;;4952421;29;20228;-94
2023/06/07 21:08:23;;;;;;;3.93;2.17;;;28.00;87.50;;;;;;4940532;29;20240;-95
2023/06/07 21:11:11;;;;;;;4.85;2.33;;;27.90;87.90;;;;;;4941714;29;20248;-92
2023/06/07 21:13:43;;;;;;;4.25;1.92;;;27.70;89.00;;;;;;4955644;29;20212;-94
2023/06/07 21:19:02;;;;;;;5.07;2.27;;;27.80;89.30;;;;;;4953302;29;20208;-96
2023/06/07 21:21:42;;;;;;;4.63;2.17;;;27.80;86.90;;;;;;4945067;29;20220;-96
2023/06/07 21:24:26;;;;;;;4.07;2.20;;;28.00;88.20;;;;;;4937805;29;20243;-96
2023/06/07 21:30:00;;;;;;;6.20;2.50;;;29.00;87.70;;;;;;5577159;23;20245;-96
2023/06/07 21:32:31;;;;;;;5.63;2.20;;;29.30;87.30;;;;;;4981993;28;20215;-92
2023/06/07 21:35:03;;;;;;;2.92;2.38;;;29.20;84.00;;;;;;4979030;28;20207;-91
2023/06/07 21:37:34;;;;;;;6.38;2.25;;;29.20;82.90;;;;;;4977921;28;20209;-91
2023/06/07 21:40:06;;;;;;;3.92;2.55;;;29.30;85.50;;;;;;4978594;28;20218;-90
2023/06/07 21:42:38;;;;;;;7.30;2.75;;;28.90;84.70;;;;;;4979636;28;20211;-91
2023/06/07 21:45:22;;;;;;;4.35;2.05;;;28.80;85.30;;;;;;4972477;28;20239;-90
2023/06/07 21:47:52;;;;;;;3.50;2.50;;;28.90;83.90;;;;;;4955425;28;20230;-90
2023/06/07 21:50:24;;;;;;;5.63;2.40;;;28.90;85.70;;;;;;4972815;28;20291;-89
2023/06/07 21:52:55;;;;;;;3.70;2.60;;;28.90;85.00;;;;;;4973402;28;20215;-89
2023/06/07 21:55:26;;;;;;;4.30;2.33;;;29.00;82.90;;;;;;4973926;28;20217;-90
2023/06/07 21:57:58;;;;;;;11.32;2.45;;;29.00;84.60;;;;;;4956926;28;20279;-90
2023/06/07 22:00:31;;;;;;;6.10;2.20;;;28.90;85.00;;;;;;4975521;28;20984;-90
2023/06/07 22:03:02;;;;;;;3.10;2.47;;;29.20;84.30;;;;;;4977236;28;20215;-90
2023/06/07 22:05:33;;;;;;;2.97;2.28;;;29.30;83.80;;;;;;4960324;28;20237;-90
2023/06/07 22:08:05;;;;;;;3.05;2.45;;;29.60;82.40;;;;;;4975932;28;20258;-89
2023/06/07 22:10:36;;;;;;;7.88;2.80;;;30.20;82.30;;;;;;4974050;28;20218;-91
2023/06/07 22:13:08;;;;;;;5.55;2.50;;;30.40;80.70;;;;;;4975883;28;20214;-90
2023/06/07 22:15:41;;;;;;;2.90;2.35;;;30.70;79.60;;;;;;4986686;28;20214;-90
2023/06/07 22:18:12;;;;;;;5.30;2.70;;;30.50;77.90;;;;;;4995037;28;20202;-90
2023/06/07 22:20:44;;;;;;;4.32;2.50;;;30.30;75.20;;;;;;4978388;28;20217;-90
2023/06/07 22:23:16;;;;;;;3.55;2.03;;;30.20;76.20;;;;;;4975984;28;20207;-89
2023/06/07 22:25:49;;;;;;;4.78;2.00;;;30.50;78.00;;;;;;4976148;28;20309;-89
2023/06/07 22:28:21;;;;;;;6.57;2.40;;;30.40;75.00;;;;;;4970727;28;20265;-91
2023/06/07 22:30:57;;;;;;;3.78;2.80;;;30.30;73.10;;;;;;4952202;28;20301;-90
2023/06/07 22:33:28;;;;;;;2.67;2.08;;;30.40;75.50;;;;;;4983337;28;20671;-91
2023/06/07 22:35:59;;;;;;;4.22;2.40;;;30.60;74.00;;;;;;4976900;28;20207;-91
2023/06/07 22:38:31;;;;;;;5.00;2.22;;;30.60;74.80;;;;;;4975719;28;20203;-90
2023/06/07 22:41:02;;;;;;;5.85;2.20;;;30.40;72.50;;;;;;4975959;28;20211;-90
2023/06/07 22:43:34;;;;;;;7.03;2.05;;;30.40;72.60;;;;;;4975842;28;20219;-90
2023/06/07 22:46:06;;;;;;;3.10;2.30;;;30.30;72.70;;;;;;4977137;28;20230;-90
2023/06/07 22:48:38;;;;;;;6.50;2.50;;;30.10;72.90;;;;;;4975648;28;20289;-91
2023/06/07 22:51:09;;;;;;;4.47;2.33;;;30.60;73.80;;;;;;4968973;28;20211;-90
2023/06/07 22:53:40;;;;;;;4.38;2.40;;;30.60;73.10;;;;;;4959070;28;20223;-90
2023/06/07 22:56:12;;;;;;;5.57;2.22;;;30.80;75.00;;;;;;4976377;28;20215;-91
2023/06/07 22:58:43;;;;;;;4.95;2.47;;;30.60;76.30;;;;;;4974586;28;20211;-91
2023/06/07 23:01:17;;;;;;;41.20;3.95;;;30.70;76.00;;;;;;4977001;28;20222;-91
2023/06/07 23:03:48;;;;;;;5.72;2.25;;;30.70;74.90;;;;;;4974542;28;20326;-91
2023/06/07 23:06:19;;;;;;;3.83;2.63;;;30.50;74.20;;;;;;4973783;28;20207;-92
2023/06/07 23:08:53;;;;;;;4.18;2.40;;;30.80;74.80;;;;;;4963976;28;20242;-91
2023/06/07 23:11:25;;;;;;;5.18;2.60;;;31.30;74.40;;;;;;4990164;28;20210;-90
2023/06/07 23:13:59;;;;;;;3.55;2.42;;;31.60;74.90;;;;;;4994159;28;20230;-91
2023/06/07 23:16:33;;;;;;;5.55;2.63;;;32.00;75.00;;;;;;4978583;28;20225;-91
2023/06/07 23:19:05;;;;;;;2.90;2.10;;;31.90;72.40;;;;;;4975509;28;20207;-91
2023/06/07 23:21:44;;;;;;;6.35;2.80;;;31.50;73.00;;;;;;4979067;28;20252;-90
2023/06/07 23:24:21;;;;;;;4.63;2.33;;;31.50;71.70;;;;;;4978197;28;20285;-89
2023/06/07 23:26:53;;;;;;;5.75;2.40;;;31.60;72.70;;;;;;4984669;28;20213;-90
2023/06/07 23:29:24;;;;;;;4.07;2.40;;;31.80;72.90;;;;;;4969608;28;20294;-90
2023/06/07 23:31:57;;;;;;;5.57;2.53;;;31.80;73.40;;;;;;4976287;28;20660;-90
2023/06/07 23:34:29;;;;;;;4.18;2.30;;;31.60;72.40;;;;;;4973582;28;20234;-91
2023/06/07 23:37:01;;;;;;;3.55;2.60;;;31.50;72.20;;;;;;4956222;29;20223;-91
2023/06/07 23:39:32;;;;;;;4.38;2.55;;;31.60;70.50;;;;;;4966945;28;20199;-91
2023/06/07 23:42:05;;;;;;;4.22;2.38;;;31.70;69.00;;;;;;4972545;28;20203;-90
2023/06/07 23:44:37;;;;;;;4.32;2.80;;;31.80;70.30;;;;;;4984864;28;20221;-92
2023/06/07 23:47:11;;;;;;;3.10;2.35;;;31.40;69.50;;;;;;4961818;28;20215;-88
2023/06/07 23:49:42;;;;;;;3.88;2.55;;;31.50;68.70;;;;;;4972581;28;20673;-90
2023/06/07 23:52:14;;;;;;;5.50;2.53;;;31.30;67.80;;;;;;4973029;28;20206;-90
2023/06/07 23:54:45;;;;;;;8.93;2.50;;;31.50;69.40;;;;;;4965842;28;20225;-90
2023/06/07 23:57:16;;;;;;;3.70;2.42;;;31.70;69.00;;;;;;4974133;28;20286;-89
2023/06/07 23:59:48;;;;;;;3.38;2.45;;;31.70;69.00;;;;;;4972694;28;20283;-90
